Time;durP1;ratioP1;P1;durP2;ratioP2;P2;SDS_P1;SDS_P2;PMS_P1;PMS_P2;Temp;Humidity;BMP_temperature;BMP_pressure;BME280_temperature;BME280_humidity;BME280_pressure;Samples;Min_cycle;Max_cycle;Signal;HPM_P1;HPM_P2
2021/06/20 00:01:18;;;;;;;7.33;2.70;;;;;;;22.81;59.40;99631.70;1716048;81;21593;-81
2021/06/20 00:03:45;;;;;;;6.33;2.62;;;;;;;22.91;59.25;99634.10;1695783;85;21068;-81
2021/06/20 00:06:32;;;;;;;5.70;2.70;;;;;;;22.89;59.28;99637.48;1715996;83;21062;-81
2021/06/20 00:09:00;;;;;;;9.85;2.80;;;;;;;22.83;59.38;99635.58;1729653;82;21008;-83
2021/06/20 00:11:29;;;;;;;5.95;3.02;;;;;;;22.75;59.62;99633.31;1747682;82;21545;-80
2021/06/20 00:13:55;;;;;;;5.30;2.72;;;;;;;22.69;59.78;99636.77;1747939;82;21076;-81
2021/06/20 00:16:22;;;;;;;6.20;2.60;;;;;;;22.64;59.99;99628.42;1748091;82;20992;-80
2021/06/20 00:18:51;;;;;;;6.17;2.60;;;;;;;22.66;60.05;99637.16;1740944;82;21036;-81
2021/06/20 00:21:18;;;;;;;10.03;2.70;;;;;;;22.71;59.90;99632.03;1747928;82;21028;-81
2021/06/20 00:23:46;;;;;;;3.90;2.60;;;;;;;22.66;60.03;99637.16;1747840;82;21492;-81
2021/06/20 00:26:12;;;;;;;8.18;2.83;;;;;;;22.62;60.21;99635.02;1749100;82;20965;-79
2021/06/20 00:28:39;;;;;;;4.75;2.70;;;;;;;22.56;60.28;99630.71;1752681;82;21072;-79
2021/06/20 00:31:06;;;;;;;6.53;2.50;;;;;;;22.52;60.47;99632.62;1748229;82;21564;-80
2021/06/20 00:33:33;;;;;;;4.15;2.52;;;;;;;22.52;60.54;99635.31;1724691;82;21544;-79
2021/06/20 00:35:59;;;;;;;6.67;2.60;;;;;;;22.60;60.36;99640.61;1743543;82;21040;-79
2021/06/20 00:38:26;;;;;;;4.90;2.55;;;;;;;22.55;60.41;99638.47;1745171;82;21032;-80
2021/06/20 00:40:54;;;;;;;4.42;2.67;;;;;;;22.49;60.60;99637.88;1747537;82;21008;-79
2021/06/20 00:43:22;;;;;;;4.33;2.40;;;;;;;22.41;60.77;99641.51;1717322;82;21176;-78
2021/06/20 00:45:49;;;;;;;4.50;2.50;;;;;;;22.35;60.99;99644.91;1717518;83;21017;-79
2021/06/20 00:48:17;;;;;;;5.70;2.55;;;;;;;22.38;60.97;99655.37;1722325;82;21095;-79
2021/06/20 00:50:44;;;;;;;6.15;2.90;;;;;;;22.45;60.86;99646.54;1725444;82;21005;-79
2021/06/20 00:53:10;;;;;;;6.33;2.60;;;;;;;22.40;60.96;99653.33;1748906;82;21024;-80
2021/06/20 00:55:40;;;;;;;6.45;2.83;;;;;;;22.35;61.06;99648.95;1748681;82;21134;-80
2021/06/20 00:58:07;;;;;;;5.87;2.80;;;;;;;22.31;61.18;99646.32;1738498;82;21732;-80
2021/06/20 01:00:35;;;;;;;6.80;3.05;;;;;;;22.27;61.30;99647.73;1748363;82;21401;-80
2021/06/20 01:03:03;;;;;;;6.97;2.90;;;;;;;22.27;61.38;99658.50;1748223;82;21043;-81
2021/06/20 01:05:30;;;;;;;3.95;2.47;;;;;;;22.37;61.22;99661.77;1748063;82;22078;-81
2021/06/20 01:07:56;;;;;;;4.90;2.80;;;;;;;22.37;61.13;99660.95;1748103;82;21329;-80
2021/06/20 01:10:26;;;;;;;5.05;2.60;;;;;;;22.33;61.23;99667.19;1746360;82;20941;-80
2021/06/20 01:12:53;;;;;;;6.42;2.60;;;;;;;22.28;61.27;99658.83;1712072;84;21571;-80
2021/06/20 01:15:21;;;;;;;5.87;2.85;;;;;;;22.25;61.37;99660.53;1712152;84;21653;-79
2021/06/20 01:17:47;;;;;;;7.35;2.60;;;;;;;22.20;61.45;99657.07;1734802;82;21043;-80
2021/06/20 01:20:16;;;;;;;4.72;2.50;;;;;;;22.27;61.40;99654.45;1748339;82;21000;-80
2021/06/20 01:22:46;;;;;;;5.83;2.67;;;;;;;22.35;61.25;99662.42;1738172;82;21021;-81
2021/06/20 01:25:16;;;;;;;4.40;2.40;;;;;;;22.32;61.26;99676.28;1737408;81;21084;-81
2021/06/20 01:27:52;;;;;;;3.77;2.62;;;;;;;22.29;61.40;99683.41;1743489;81;21437;-81
2021/06/20 01:30:24;;;;;;;5.87;2.60;;;;;;;22.24;61.51;99677.74;1748059;82;21051;-80
2021/06/20 01:32:51;;;;;;;5.00;2.40;;;;;;;22.21;61.50;99679.44;1747406;82;21004;-81
2021/06/20 01:35:20;;;;;;;6.67;2.52;;;;;;;22.21;61.53;99672.70;1747704;82;21555;-80
2021/06/20 01:37:46;;;;;;;4.67;2.40;;;;;;;22.31;61.23;99688.08;1732033;82;21548;-80
2021/06/20 01:40:15;;;;;;;6.47;2.62;;;;;;;22.29;61.18;99687.45;1716925;82;21549;-81
2021/06/20 01:42:44;;;;;;;6.33;2.55;;;;;;;22.26;61.32;99689.14;1743316;82;21588;-81
2021/06/20 01:45:12;;;;;;;4.70;2.50;;;;;;;22.23;61.36;99690.35;1747848;81;21075;-81
2021/06/20 01:47:40;;;;;;;8.95;3.10;;;;;;;22.20;61.38;99685.84;1733520;82;20997;-80
2021/06/20 01:50:10;;;;;;;5.33;2.90;;;;;;;22.18;61.45;99688.73;1737577;82;21030;-81
2021/06/20 01:52:37;;;;;;;4.05;2.45;;;;;;;22.28;61.23;99680.87;1737306;82;21093;-81
2021/06/20 01:55:06;;;;;;;5.70;2.50;;;;;;;22.28;61.12;99679.03;1737455;82;21088;-81
2021/06/20 01:57:35;;;;;;;6.45;2.77;;;;;;;22.24;61.21;99687.17;1732493;81;21013;-80
2021/06/20 02:00:07;;;;;;;3.35;2.58;;;;;;;22.22;61.30;99685.16;1714633;82;21541;-81
2021/06/20 02:02:35;;;;;;;3.50;2.60;;;;;;;22.21;61.35;99675.40;1714851;82;21006;-83
2021/06/20 02:05:01;;;;;;;3.77;2.60;;;;;;;22.20;61.38;99673.72;1712871;83;21064;-83
2021/06/20 02:07:28;;;;;;;4.70;2.60;;;;;;;22.24;61.30;99676.39;1684678;82;21050;-82
2021/06/20 02:09:55;;;;;;;3.80;2.47;;;;;;;22.35;61.07;99669.16;1746427;82;21544;-81
2021/06/20 02:12:24;;;;;;;4.78;2.80;;;;;;;22.33;61.09;99664.49;1746330;82;21502;-79
2021/06/20 02:14:52;;;;;;;4.00;2.60;;;;;;;22.27;61.16;99665.23;1746392;82;21055;-80
2021/06/20 02:17:31;;;;;;;7.03;2.83;;;;;;;22.23;61.17;99658.03;1746220;82;21030;-80
2021/06/20 02:20:05;;;;;;;7.55;2.70;;;;;;;22.20;61.31;99653.52;1741908;82;21003;-79
2021/06/20 02:22:33;;;;;;;6.65;2.62;;;;;;;22.19;61.25;99659.95;1727336;83;21106;-79
2021/06/20 02:24:59;;;;;;;5.42;2.50;;;;;;;22.24;60.99;99657.54;1730847;83;21080;-80
2021/06/20 02:27:27;;;;;;;7.53;2.50;;;;;;;22.27;60.74;99662.54;1733997;82;21479;-80
2021/06/20 02:29:55;;;;;;;5.90;2.40;;;;;;;22.23;60.72;99666.11;1740361;82;20968;-80
2021/06/20 02:32:23;;;;;;;3.27;2.20;;;;;;;22.21;60.77;99661.94;1730711;83;21055;-79
2021/06/20 02:34:49;;;;;;;7.33;2.70;;;;;;;22.19;60.81;99659.95;1744580;82;21010;-79
2021/06/20 02:37:16;;;;;;;5.53;2.70;;;;;;;22.18;60.77;99660.45;1746426;82;21473;-78
2021/06/20 02:39:44;;;;;;;8.73;2.55;;;;;;;22.17;60.72;99653.91;1746038;82;21519;-79
2021/06/20 02:42:12;;;;;;;7.15;2.60;;;;;;;22.23;60.58;99657.20;1746372;82;21011;-78
2021/06/20 02:44:39;;;;;;;6.25;2.60;;;;;;;22.34;60.26;99659.44;1745975;82;21590;-78
2021/06/20 02:47:08;;;;;;;4.25;2.83;;;;;;;22.36;60.03;99652.51;1746162;82;20962;-79
2021/06/20 02:49:36;;;;;;;6.95;2.70;;;;;;;22.34;59.98;99653.19;1737610;82;21673;-80
2021/06/20 02:52:06;;;;;;;4.08;2.60;;;;;;;22.32;59.95;99652.56;1730469;83;21059;-80
2021/06/20 02:54:32;;;;;;;6.45;2.70;;;;;;;22.31;59.97;99652.23;1715245;84;21032;-80
2021/06/20 02:56:59;;;;;;;6.40;2.85;;;;;;;22.32;59.89;99653.39;1732308;82;21007;-81
2021/06/20 02:59:25;;;;;;;4.62;2.72;;;;;;;22.34;59.48;99646.45;1746479;82;21003;-80
2021/06/20 03:01:52;;;;;;;4.58;2.50;;;;;;;22.35;59.48;99650.30;1745916;82;21034;-80
2021/06/20 03:04:19;;;;;;;5.33;2.80;;;;;;;22.45;59.42;99646.54;1746078;82;20997;-80
2021/06/20 03:06:45;;;;;;;5.10;2.85;;;;;;;22.60;59.01;99636.56;1739319;82;21040;-81
2021/06/20 03:09:13;;;;;;;5.10;2.50;;;;;;;22.65;58.72;99642.22;1741482;82;21058;-80
2021/06/20 03:11:41;;;;;;;4.42;2.42;;;;;;;22.68;58.67;99640.48;1746975;82;21087;-80
2021/06/20 03:14:13;;;;;;;3.35;2.42;;;;;;;22.70;58.48;99638.45;1748212;82;21000;-79
2021/06/20 03:16:42;;;;;;;;;;;;;;;22.74;58.18;99644.30;1750531;82;21047;-79
2021/06/20 03:19:10;;;;;;;4.67;2.80;;;;;;;22.74;57.95;99643.77;1746603;82;20182;-80
2021/06/20 03:21:36;;;;;;;6.05;3.00;;;;;;;22.70;58.01;99658.66;1748011;82;21528;-80
2021/06/20 03:24:05;;;;;;;5.33;2.47;;;;;;;22.70;57.96;99672.66;1747958;82;21075;-80
2021/06/20 03:26:31;;;;;;;5.00;2.80;;;;;;;22.70;58.20;99671.31;1748003;82;21028;-79
2021/06/20 03:28:58;;;;;;;4.35;3.20;;;;;;;22.68;58.18;99675.52;1750025;82;21019;-79
2021/06/20 03:31:24;;;;;;;3.95;2.45;;;;;;;22.69;58.21;99677.72;1728744;82;21521;-78
2021/06/20 03:33:50;;;;;;;5.28;2.50;;;;;;;22.74;58.24;99680.69;1716927;83;21604;-78
2021/06/20 03:36:17;;;;;;;5.62;2.60;;;;;;;22.84;57.94;99689.31;1729322;82;21056;-79
2021/06/20 03:38:44;;;;;;;5.20;2.67;;;;;;;22.85;57.88;99691.48;1747823;82;20997;-79
2021/06/20 03:48:17;;;;;;;5.03;2.72;;;;;;;22.83;57.30;99674.67;1799844;79;22977;-75
2021/06/20 03:50:44;;;;;;;5.33;2.52;;;;;;;22.77;57.26;99676.78;1762781;80;20962;-75
2021/06/20 03:53:12;;;;;;;7.58;3.02;;;;;;;22.75;56.92;99669.71;1761878;81;21052;-75
2021/06/20 03:55:41;;;;;;;6.97;2.35;;;;;;;22.73;56.86;99656.92;1757165;81;21080;-75
2021/06/20 03:58:09;;;;;;;4.72;2.20;;;;;;;22.75;57.06;99656.76;1733874;82;21101;-75
2021/06/20 04:00:37;;;;;;;6.78;2.62;;;;;;;22.75;56.68;99654.88;1752070;82;21008;-75
2021/06/20 04:03:04;;;;;;;6.90;2.45;;;;;;;22.73;56.60;99650.70;1753449;81;21179;-75
2021/06/20 04:05:32;;;;;;;5.05;2.90;;;;;;;22.74;56.82;99647.81;1752715;82;20997;-75
2021/06/20 04:07:59;;;;;;;7.30;2.72;;;;;;;22.52;56.67;99616.45;1753091;82;21068;-75
2021/06/20 04:10:26;;;;;;;5.15;2.70;;;;;;;22.76;56.87;99650.31;1750401;82;21068;-76
2021/06/20 04:12:53;;;;;;;7.67;2.70;;;;;;;22.75;56.58;99640.06;1727187;81;20976;-76
2021/06/20 04:15:21;;;;;;;4.90;2.62;;;;;;;22.71;56.66;99622.60;1725244;82;21028;-75
2021/06/20 04:17:48;;;;;;;4.53;2.40;;;;;;;22.71;56.47;99614.52;1723620;83;21056;-75
2021/06/20 04:20:18;;;;;;;7.45;2.65;;;;;;;22.81;56.19;99624.97;1656856;85;21044;-75
2021/06/20 04:22:46;;;;;;;6.85;2.98;;;;;;;22.75;56.49;99619.84;1708749;84;21300;-75
2021/06/20 04:25:15;;;;;;;9.90;2.70;;;;;;;22.69;56.68;99627.86;1681886;84;21676;-75
2021/06/20 04:27:46;;;;;;;7.58;2.58;;;;;;;22.63;56.94;99620.00;1692295;84;21076;-75
2021/06/20 04:30:13;;;;;;;3.72;2.62;;;;;;;22.61;57.08;99614.48;1679228;84;21072;-76
2021/06/20 04:32:41;;;;;;;4.85;2.50;;;;;;;22.61;57.02;99627.46;1714615;83;21027;-76
2021/06/20 04:35:10;;;;;;;6.20;2.50;;;;;;;22.67;56.79;99625.33;1709552;84;21004;-76
2021/06/20 04:37:38;;;;;;;6.62;2.40;;;;;;;22.79;56.17;99614.05;1679482;85;21123;-77
2021/06/20 04:40:06;;;;;;;6.12;2.50;;;;;;;22.90;55.98;99614.41;1684412;85;21523;-77
2021/06/20 04:42:35;;;;;;;5.33;2.60;;;;;;;22.99;55.63;99601.64;1687405;84;21014;-77
2021/06/20 04:45:04;;;;;;;7.05;2.60;;;;;;;22.99;55.60;99607.03;1681777;84;21068;-77
2021/06/20 04:47:32;;;;;;;6.17;2.70;;;;;;;22.99;55.60;99605.68;1700263;83;21048;-77
2021/06/20 04:49:58;;;;;;;8.10;3.00;;;;;;;23.03;56.00;99623.63;1682215;84;21013;-77
2021/06/20 04:52:25;;;;;;;4.05;2.80;;;;;;;23.11;55.73;99621.32;1676072;84;21005;-77
2021/06/20 04:54:55;;;;;;;5.75;2.47;;;;;;;23.16;55.77;99622.95;1693582;84;21045;-76
2021/06/20 04:57:27;;;;;;;6.00;2.85;;;;;;;23.21;55.62;99614.62;1691854;84;21703;-77
2021/06/20 04:59:57;;;;;;;5.58;2.67;;;;;;;23.24;55.74;99610.70;1694394;84;21587;-75
2021/06/20 05:02:23;;;;;;;4.37;2.75;;;;;;;23.27;55.50;99608.95;1701186;84;20989;-76
2021/06/20 05:04:50;;;;;;;4.75;2.80;;;;;;;23.28;55.64;99616.02;1684895;84;21004;-77
2021/06/20 05:07:17;;;;;;;8.75;2.98;;;;;;;23.29;55.61;99626.28;1690762;84;21084;-76
2021/06/20 05:09:45;;;;;;;5.00;2.80;;;;;;;23.31;55.90;99620.19;1685868;84;21060;-75
2021/06/20 05:12:12;;;;;;;6.75;2.95;;;;;;;23.37;56.19;99618.07;1679110;84;21520;-75
2021/06/20 05:14:42;;;;;;;5.67;3.05;;;;;;;23.47;55.82;99609.65;1685910;84;21052;-76
2021/06/20 05:17:11;;;;;;;7.90;3.02;;;;;;;23.61;55.62;99608.70;1702043;84;21068;-76
2021/06/20 05:19:37;;;;;;;5.67;2.80;;;;;;;23.75;54.97;99606.08;1679445;84;21060;-76
2021/06/20 05:22:04;;;;;;;4.83;2.83;;;;;;;23.79;55.06;99604.68;1681135;84;20993;-76
2021/06/20 05:24:33;;;;;;;6.65;2.90;;;;;;;23.76;54.77;99604.56;1680162;84;21029;-76
2021/06/20 05:27:00;;;;;;;4.75;2.37;;;;;;;23.75;54.97;99597.98;1683182;84;21654;-76
2021/06/20 05:29:26;;;;;;;5.53;2.90;;;;;;;23.80;54.64;99603.63;1676621;84;21084;-75
2021/06/20 05:31:53;;;;;;;4.28;2.67;;;;;;;24.00;54.22;99599.23;1663577;86;21049;-78
2021/06/20 05:34:21;;;;;;;4.85;2.50;;;;;;;24.40;52.84;99592.32;1656959;86;21088;-75
2021/06/20 05:36:48;;;;;;;6.28;2.90;;;;;;;24.89;51.60;99602.06;1646934;86;21112;-75
2021/06/20 05:39:15;;;;;;;7.17;2.62;;;;;;;25.32;50.74;99603.03;1638314;87;21024;-77
2021/06/20 05:41:41;;;;;;;4.45;2.80;;;;;;;25.69;48.87;99603.95;1638664;87;20989;-76
2021/06/20 05:44:10;;;;;;;6.12;2.55;;;;;;;25.90;48.39;99601.53;1679226;84;21069;-77
2021/06/20 05:46:37;;;;;;;6.50;2.55;;;;;;;26.13;48.05;99605.67;1675207;85;21108;-76
2021/06/20 05:49:04;;;;;;;5.95;2.52;;;;;;;26.30;47.62;99601.95;1696614;83;21058;-77
2021/06/20 05:51:31;;;;;;;7.83;2.85;;;;;;;26.26;46.92;99605.61;1696498;84;21079;-77
2021/06/20 05:53:57;;;;;;;4.15;2.72;;;;;;;26.07;46.85;99604.63;1698290;83;20995;-76
2021/06/20 05:56:23;;;;;;;6.22;2.83;;;;;;;25.89;46.97;99601.75;1696084;84;21126;-77
2021/06/20 05:58:49;;;;;;;6.80;2.80;;;;;;;25.73;47.23;99601.16;1696170;84;21138;-76
2021/06/20 06:01:16;;;;;;;4.53;2.52;;;;;;;25.62;48.13;99608.56;1696511;84;21071;-77
2021/06/20 06:03:43;;;;;;;3.60;2.50;;;;;;;25.63;48.44;99599.41;1712018;83;21016;-76
2021/06/20 06:06:10;;;;;;;6.10;2.40;;;;;;;25.64;48.66;99607.31;1704094;83;21007;-78
2021/06/20 06:08:36;;;;;;;4.47;2.62;;;;;;;25.68;48.02;99615.86;1667631;85;21075;-77
2021/06/20 06:11:06;;;;;;;5.10;2.20;;;;;;;25.71;47.28;99613.25;1697404;83;21070;-77
2021/06/20 06:13:32;;;;;;;9.60;2.20;;;;;;;25.82;47.62;99614.78;1716659;82;21536;-77
2021/06/20 06:15:59;;;;;;;7.00;2.50;;;;;;;25.98;47.24;99612.13;1720798;83;21639;-76
2021/06/20 06:18:27;;;;;;;5.87;2.40;;;;;;;26.13;46.93;99611.09;1702290;83;21497;-77
2021/06/20 06:20:56;;;;;;;5.50;2.70;;;;;;;26.19;46.76;99614.31;1688864;84;21073;-77
2021/06/20 06:23:26;;;;;;;4.58;2.40;;;;;;;26.28;46.73;99609.45;1709232;83;20997;-78
2021/06/20 06:25:53;;;;;;;6.15;2.50;;;;;;;26.42;46.67;99614.30;1693766;84;21427;-77
2021/06/20 06:28:19;;;;;;;5.20;2.42;;;;;;;26.50;46.21;99616.25;1687939;84;21544;-76
2021/06/20 06:30:46;;;;;;;38.88;5.42;;;;;;;26.42;45.70;99619.72;1690740;84;21073;-76
2021/06/20 06:33:12;;;;;;;8.00;2.55;;;;;;;26.22;46.38;99631.48;1705900;84;21036;-75
2021/06/20 06:35:39;;;;;;;7.10;2.47;;;;;;;26.06;46.85;99624.64;1697043;84;21065;-75
2021/06/20 06:38:06;;;;;;;5.58;2.52;;;;;;;25.96;47.29;99621.00;1698971;84;21076;-74
2021/06/20 06:40:32;;;;;;;5.50;2.55;;;;;;;25.87;47.47;99624.99;1698012;84;21060;-74
2021/06/20 06:42:59;;;;;;;6.60;2.77;;;;;;;25.74;47.91;99623.11;1689243;84;21013;-75
2021/06/20 06:45:25;;;;;;;12.33;3.50;;;;;;;25.64;48.33;99627.63;1700473;84;21100;-75
2021/06/20 06:47:51;;;;;;;4.35;2.65;;;;;;;25.60;48.33;99631.80;1673704;85;21056;-75
2021/06/20 06:50:18;;;;;;;4.75;2.30;;;;;;;25.61;48.59;99628.02;1678564;85;21603;-74
2021/06/20 06:52:46;;;;;;;3.90;2.58;;;;;;;25.75;48.60;99621.25;1684612;85;21014;-74
2021/06/20 06:55:14;;;;;;;5.15;2.75;;;;;;;26.05;48.42;99619.44;1675180;85;21059;-73
2021/06/20 06:57:43;;;;;;;7.70;2.40;;;;;;;26.38;47.65;99613.08;1731368;82;21077;-73
2021/06/20 07:00:11;;;;;;;9.88;2.60;;;;;;;26.65;46.45;99611.91;1723367;82;21048;-74
2021/06/20 07:02:37;;;;;;;6.87;2.25;;;;;;;26.79;46.15;99596.92;1725460;82;20989;-73
2021/06/20 07:05:05;;;;;;;6.75;2.40;;;;;;;26.95;45.70;99596.94;1739631;82;21001;-73
2021/06/20 07:07:33;;;;;;;6.05;2.30;;;;;;;27.10;44.42;99600.70;1714100;82;21628;-73
2021/06/20 07:10:00;;;;;;;5.10;2.20;;;;;;;27.05;44.96;99593.21;1710780;82;21033;-73
2021/06/20 07:12:31;;;;;;;8.58;2.37;;;;;;;27.09;44.73;99590.90;1678478;84;21088;-74
2021/06/20 07:14:57;;;;;;;5.60;2.30;;;;;;;27.14;43.71;99581.56;1736805;82;20998;-74
2021/06/20 07:17:25;;;;;;;8.00;2.47;;;;;;;27.12;44.16;99583.66;1733098;82;21510;-72
2021/06/20 07:19:51;;;;;;;4.12;2.20;;;;;;;27.06;42.75;99584.03;1742981;82;21054;-74
2021/06/20 07:22:19;;;;;;;7.85;2.30;;;;;;;27.09;43.76;99581.40;1742441;82;20989;-76
2021/06/20 07:24:45;;;;;;;5.45;2.20;;;;;;;27.30;44.12;99582.37;1729156;82;21041;-74
2021/06/20 07:27:13;;;;;;;13.83;2.62;;;;;;;27.61;42.66;99580.65;1655986;86;21056;-73
2021/06/20 07:29:43;;;;;;;5.87;2.30;;;;;;;27.84;41.79;99591.40;1729623;82;20985;-73
2021/06/20 07:32:09;;;;;;;8.08;2.52;;;;;;;27.96;41.51;99581.41;1698211;84;21013;-74
2021/06/20 07:34:36;;;;;;;5.53;2.10;;;;;;;27.98;41.45;99581.72;1670068;84;21084;-75
2021/06/20 07:37:03;;;;;;;5.55;2.02;;;;;;;27.89;41.56;99578.47;1699700;84;21135;-76
2021/06/20 07:39:30;;;;;;;6.20;2.35;;;;;;;27.77;41.58;99586.55;1699533;84;20977;-72
2021/06/20 07:41:58;;;;;;;6.28;2.10;;;;;;;27.68;42.23;99584.65;1699531;84;21643;-76
2021/06/20 07:44:26;;;;;;;4.95;2.40;;;;;;;27.65;42.57;99585.11;1699785;84;21020;-76
2021/06/20 07:46:54;;;;;;;3.40;1.95;;;;;;;27.59;42.72;99590.89;1699590;84;21112;-76
2021/06/20 07:49:20;;;;;;;7.53;2.20;;;;;;;27.49;42.67;99587.86;1693247;84;21060;-76
2021/06/20 07:51:47;;;;;;;9.55;2.35;;;;;;;27.29;42.64;99584.78;1699696;84;21045;-75
2021/06/20 07:54:14;;;;;;;11.18;2.62;;;;;;;27.07;43.08;99587.56;1692942;84;21113;-75
2021/06/20 07:56:41;;;;;;;5.03;2.65;;;;;;;26.84;43.39;99583.53;1697793;84;21086;-76
2021/06/20 07:59:08;;;;;;;5.87;2.33;;;;;;;26.56;44.16;99579.31;1738890;82;21069;-76
2021/06/20 08:01:35;;;;;;;6.97;2.40;;;;;;;26.36;44.90;99566.36;1739217;82;21501;-76
2021/06/20 08:04:01;;;;;;;4.50;2.17;;;;;;;26.21;45.23;99563.41;1718057;82;21049;-75
2021/06/20 08:06:27;;;;;;;4.15;2.22;;;;;;;26.06;45.63;99560.14;1709917;84;21045;-75
2021/06/20 08:08:56;;;;;;;5.87;2.20;;;;;;;25.96;45.99;99565.47;1716540;82;20985;-75
2021/06/20 08:11:24;;;;;;;5.22;2.05;;;;;;;25.94;45.88;99554.00;1709705;83;21076;-74
2021/06/20 08:13:50;;;;;;;5.28;2.20;;;;;;;26.03;46.15;99555.14;1709892;83;21029;-75
2021/06/20 08:16:18;;;;;;;3.47;2.12;;;;;;;26.24;45.94;99537.25;1709810;83;21131;-76
2021/06/20 08:18:47;;;;;;;8.40;2.80;;;;;;;26.46;45.46;99532.87;1710713;82;21000;-74
2021/06/20 08:22:11;;;;;;;6.78;2.58;;;;;;;26.78;44.55;99524.76;1800964;79;22934;-75
2021/06/20 08:24:39;;;;;;;3.62;2.40;;;;;;;26.93;43.62;99522.55;1757615;80;21615;-76
2021/06/20 08:27:06;;;;;;;7.62;2.20;;;;;;;27.05;43.74;99518.59;1726763;82;21044;-75
2021/06/20 08:29:33;;;;;;;6.72;2.50;;;;;;;27.16;42.81;99518.38;1749571;82;21591;-75
2021/06/20 08:32:00;;;;;;;6.22;2.30;;;;;;;27.25;43.53;99517.06;1739983;82;20993;-74
2021/06/20 08:34:30;;;;;;;2.60;2.02;;;;;;;27.39;42.89;99523.73;1752002;80;21021;-75
2021/06/20 08:37:00;;;;;;;6.70;2.47;;;;;;;27.47;42.48;99514.77;1663180;86;21187;-75
2021/06/20 08:39:28;;;;;;;10.25;2.20;;;;;;;27.56;42.53;99519.89;1701320;84;21547;-75
2021/06/20 08:41:54;;;;;;;5.17;2.10;;;;;;;27.66;42.14;99515.30;1695657;84;21039;-75
2021/06/20 08:44:31;;;;;;;9.25;2.30;;;;;;;27.76;41.95;99511.53;1694155;84;21116;-75
2021/06/20 08:46:59;;;;;;;4.15;2.00;;;;;;;27.87;41.73;99506.70;1691800;84;21111;-74
2021/06/20 08:49:25;;;;;;;8.03;2.30;;;;;;;27.89;40.25;99491.52;1684129;85;21100;-75
2021/06/20 08:51:53;;;;;;;9.20;2.55;;;;;;;27.77;40.40;99496.90;1673228;85;21503;-74
2021/06/20 08:54:20;;;;;;;4.72;2.65;;;;;;;27.76;41.22;99495.23;1700437;84;21061;-76
2021/06/20 08:56:50;;;;;;;7.50;2.60;;;;;;;27.83;39.96;99493.78;1682576;84;21161;-75
2021/06/20 08:59:20;;;;;;;6.42;2.10;;;;;;;27.86;40.51;99498.23;1693291;84;21044;-75
2021/06/20 09:01:47;;;;;;;3.33;2.20;;;;;;;27.90;40.49;99489.11;1686117;84;21051;-74
2021/06/20 09:04:29;;;;;;;7.55;2.10;;;;;;;27.94;40.57;99499.30;1692926;84;21075;-76
2021/06/20 09:06:58;;;;;;;4.60;2.20;;;;;;;28.01;40.04;99494.31;1684541;84;21064;-75
2021/06/20 09:09:30;;;;;;;7.17;2.50;;;;;;;28.00;39.85;99500.81;1678807;85;21079;-75
2021/06/20 09:12:14;;;;;;;14.87;3.30;;;;;;;27.98;39.45;99489.32;1683369;84;21119;-75
2021/06/20 09:14:48;;;;;;;9.00;2.25;;;;;;;28.01;40.07;99491.59;1694146;84;21106;-74
2021/06/20 09:17:30;;;;;;;10.03;2.30;;;;;;;28.13;39.57;99492.49;1674836;85;21008;-76
2021/06/20 09:20:00;;;;;;;12.18;2.77;;;;;;;28.18;38.93;99492.63;1684385;84;21567;-74
2021/06/20 09:22:28;;;;;;;7.55;2.35;;;;;;;28.22;39.24;99488.93;1698516;84;21063;-74
2021/06/20 09:25:14;;;;;;;4.53;1.80;;;;;;;28.24;38.67;99484.92;1692754;84;21056;-73
2021/06/20 09:27:41;;;;;;;8.05;2.80;;;;;;;28.25;39.03;99485.23;1694421;84;21039;-73
2021/06/20 09:30:11;;;;;;;11.22;2.40;;;;;;;28.32;39.44;99487.02;1677387;85;21044;-74
2021/06/20 09:32:59;;;;;;;7.40;2.70;;;;;;;28.36;38.78;99481.41;1684404;84;21024;-74
2021/06/20 09:35:28;;;;;;;6.42;2.30;;;;;;;28.39;38.27;99485.02;1695575;84;21067;-74
2021/06/20 09:37:56;;;;;;;4.83;1.98;;;;;;;28.37;38.22;99483.89;1699726;84;21088;-74
2021/06/20 09:40:26;;;;;;;6.83;2.40;;;;;;;28.38;37.94;99478.77;1693658;84;21051;-74
2021/06/20 09:42:53;;;;;;;8.45;2.60;;;;;;;28.42;37.96;99464.99;1698947;84;21032;-74
2021/06/20 09:45:31;;;;;;;8.65;2.90;;;;;;;28.46;38.09;99472.16;1708250;84;21104;-74
2021/06/20 09:47:58;;;;;;;8.70;2.55;;;;;;;28.51;38.42;99468.75;1702529;84;20997;-75
2021/06/20 09:50:39;;;;;;;8.68;2.42;;;;;;;28.59;38.01;99467.89;1689025;84;21008;-75
2021/06/20 09:53:06;;;;;;;17.85;3.27;;;;;;;28.67;38.27;99465.91;1689531;84;21583;-74
2021/06/20 09:55:34;;;;;;;7.42;2.20;;;;;;;28.77;38.22;99474.31;1700493;84;21119;-75
2021/06/20 09:58:02;;;;;;;8.88;2.17;;;;;;;28.84;38.28;99468.24;1690205;84;21095;-75
2021/06/20 10:00:42;;;;;;;5.83;2.30;;;;;;;28.90;37.64;99465.95;1700944;84;20953;-75
2021/06/20 10:03:24;;;;;;;11.85;6.30;;;;;;;28.99;37.79;99466.94;1688840;84;21091;-75
2021/06/20 10:05:53;;;;;;;5.70;2.65;;;;;;;29.08;38.05;99466.87;1682980;84;21531;-74
2021/06/20 10:08:19;;;;;;;6.33;2.35;;;;;;;29.22;38.46;99462.87;1708189;84;21024;-74
2021/06/20 10:10:46;;;;;;;11.25;2.37;;;;;;;29.38;37.80;99459.15;1706199;84;21019;-74
2021/06/20 10:13:14;;;;;;;44.40;6.50;;;;;;;29.50;37.09;99464.02;1698490;84;21071;-74
2021/06/20 10:15:42;;;;;;;5.45;2.20;;;;;;;29.61;35.15;99464.27;1698071;84;21139;-74
2021/06/20 10:18:08;;;;;;;8.65;2.65;;;;;;;29.62;34.00;99472.70;1701077;84;21064;-73
2021/06/20 10:20:35;;;;;;;7.95;2.47;;;;;;;29.58;34.01;99458.22;1682820;84;21551;-74
2021/06/20 10:23:03;;;;;;;9.08;2.17;;;;;;;29.58;34.34;99453.31;1741401;82;21129;-75
2021/06/20 10:25:40;;;;;;;5.47;1.98;;;;;;;29.57;33.84;99456.55;1735878;82;21016;-74
2021/06/20 10:28:14;;;;;;;11.95;2.42;;;;;;;29.58;34.19;99453.31;1734866;82;21492;-74
2021/06/20 10:30:46;;;;;;;4.00;1.87;;;;;;;29.61;34.45;99457.45;1713733;82;21043;-76
2021/06/20 10:33:19;;;;;;;6.92;2.22;;;;;;;29.66;34.20;99449.38;1743056;82;20999;-75
2021/06/20 10:36:01;;;;;;;7.05;2.60;;;;;;;29.72;34.13;99449.23;1729438;82;21650;-74
2021/06/20 10:38:38;;;;;;;7.90;2.05;;;;;;;29.78;34.52;99439.80;1724831;82;21008;-74
2021/06/20 10:41:05;;;;;;;9.13;2.30;;;;;;;29.82;33.26;99436.33;1732060;82;21008;-73
2021/06/20 10:43:32;;;;;;;3.60;1.67;;;;;;;29.79;32.83;99446.36;1730775;82;21043;-73
2021/06/20 10:46:00;;;;;;;10.72;2.20;;;;;;;29.74;33.63;99450.35;1722353;82;20996;-73
2021/06/20 10:48:35;;;;;;;16.87;2.42;;;;;;;29.73;34.07;99447.33;1734045;82;21075;-74
2021/06/20 10:51:03;;;;;;;29.00;3.58;;;;;;;29.70;32.95;99435.56;1728444;82;21023;-74
2021/06/20 10:53:41;;;;;;;14.85;2.40;;;;;;;29.64;32.98;99440.61;1729960;82;21028;-73
2021/06/20 10:56:26;;;;;;;19.65;3.60;;;;;;;29.58;32.88;99443.23;1730278;82;21135;-74
2021/06/20 10:58:55;;;;;;;8.18;2.00;;;;;;;29.55;32.89;99449.69;1725606;82;21114;-73
2021/06/20 11:01:25;;;;;;;7.75;2.30;;;;;;;29.52;33.37;99431.94;1729219;82;20992;-73
2021/06/20 11:03:57;;;;;;;6.45;2.10;;;;;;;29.55;33.38;99436.06;1726217;82;21149;-76
2021/06/20 11:06:24;;;;;;;5.80;1.85;;;;;;;29.57;33.13;99425.77;1728372;82;21606;-73
2021/06/20 11:09:01;;;;;;;6.40;1.65;;;;;;;29.57;33.13;99423.05;1722095;82;20972;-73
2021/06/20 11:11:32;;;;;;;6.62;1.87;;;;;;;29.59;33.06;99417.65;1733068;82;21040;-74
2021/06/20 11:14:07;;;;;;;4.60;2.00;;;;;;;29.62;33.36;99415.49;1724962;82;21079;-72
2021/06/20 11:16:43;;;;;;;5.42;2.20;;;;;;;29.68;33.65;99406.36;1716533;82;21050;-73
2021/06/20 11:19:17;;;;;;;11.60;3.65;;;;;;;29.74;33.09;99425.83;1717880;82;21016;-74
2021/06/20 11:21:51;;;;;;;11.28;3.20;;;;;;;29.74;32.97;99404.03;1699715;81;21122;-75
2021/06/20 11:24:21;;;;;;;10.13;2.45;;;;;;;29.74;33.32;99405.39;1747143;81;21123;-74
2021/06/20 11:27:16;;;;;;;6.60;2.17;;;;;;;29.77;33.92;99404.89;1733044;81;21000;-74
2021/06/20 11:29:59;;;;;;;6.90;2.75;;;;;;;29.81;33.42;99402.00;1692125;84;21076;-73
2021/06/20 11:32:33;;;;;;;8.33;3.83;;;;;;;29.85;33.74;99409.97;1732673;81;21079;-74
2021/06/20 11:35:09;;;;;;;8.58;2.55;;;;;;;29.87;33.09;99415.17;1733140;81;21107;-73
2021/06/20 11:37:51;;;;;;;7.20;2.55;;;;;;;29.87;32.97;99416.02;1737259;81;21570;-74
2021/06/20 11:40:22;;;;;;;16.95;3.37;;;;;;;29.85;33.53;99424.96;1746842;81;21476;-74
2021/06/20 11:42:56;;;;;;;9.48;2.85;;;;;;;29.88;33.44;99449.02;1734626;81;21028;-74
2021/06/20 11:45:26;;;;;;;12.13;2.70;;;;;;;29.90;32.34;99442.80;1734362;81;21025;-74
2021/06/20 11:47:56;;;;;;;6.60;2.70;;;;;;;29.94;32.58;99440.94;1741762;81;21064;-74
2021/06/20 11:50:27;;;;;;;12.07;3.95;;;;;;;29.91;33.32;99433.56;1731246;81;21089;-74